sensor_id;sensor_type;location;lat;lon;timestamp;P1;durP1;ratioP1;P2;durP2;ratioP2
25437;SDS011;13364;49.084;9.978;2023-02-28T00:00:20;3.28;;;2.85;;
25437;SDS011;13364;49.084;9.978;2023-02-28T00:02:48;5.28;;;2.78;;
25437;SDS011;13364;49.084;9.978;2023-02-28T00:05:17;7.28;;;4.38;;
25437;SDS011;13364;49.084;9.978;2023-02-28T00:07:46;8.27;;;4.15;;
25437;SDS011;13364;49.084;9.978;2023-02-28T00:10:14;5.03;;;3.55;;
25437;SDS011;13364;49.084;9.978;2023-02-28T00:12:47;5.50;;;3.63;;
25437;SDS011;13364;49.084;9.978;2023-02-28T00:15:15;7.30;;;3.87;;
25437;SDS011;13364;49.084;9.978;2023-02-28T00:17:43;5.22;;;4.00;;
25437;SDS011;13364;49.084;9.978;2023-02-28T00:20:11;4.90;;;4.20;;
25437;SDS011;13364;49.084;9.978;2023-02-28T00:22:40;5.90;;;3.58;;
25437;SDS011;13364;49.084;9.978;2023-02-28T00:25:09;6.10;;;3.95;;
25437;SDS011;13364;49.084;9.978;2023-02-28T00:30:06;3.40;;;2.65;;
25437;SDS011;13364;49.084;9.978;2023-02-28T00:32:36;6.13;;;3.92;;
25437;SDS011;13364;49.084;9.978;2023-02-28T00:38:07;5.57;;;3.63;;
25437;SDS011;13364;49.084;9.978;2023-02-28T00:40:34;4.00;;;3.13;;
25437;SDS011;13364;49.084;9.978;2023-02-28T00:43:01;6.38;;;3.60;;
25437;SDS011;13364;49.084;9.978;2023-02-28T00:45:29;4.20;;;3.25;;
25437;SDS011;13364;49.084;9.978;2023-02-28T00:47:56;5.70;;;3.90;;
25437;SDS011;13364;49.084;9.978;2023-02-28T00:50:24;6.32;;;4.45;;
25437;SDS011;13364;49.084;9.978;2023-02-28T00:52:51;6.97;;;4.07;;
25437;SDS011;13364;49.084;9.978;2023-02-28T00:55:19;6.45;;;3.63;;
25437;SDS011;13364;49.084;9.978;2023-02-28T00:57:47;4.88;;;3.72;;
25437;SDS011;13364;49.084;9.978;2023-02-28T01:00:14;7.35;;;4.03;;
25437;SDS011;13364;49.084;9.978;2023-02-28T01:02:41;6.32;;;4.00;;
25437;SDS011;13364;49.084;9.978;2023-02-28T01:05:08;4.25;;;3.40;;
25437;SDS011;13364;49.084;9.978;2023-02-28T01:07:36;9.48;;;4.25;;
25437;SDS011;13364;49.084;9.978;2023-02-28T01:10:04;5.13;;;3.67;;
25437;SDS011;13364;49.084;9.978;2023-02-28T01:12:32;6.55;;;4.55;;
25437;SDS011;13364;49.084;9.978;2023-02-28T01:14:59;6.90;;;3.78;;
25437;SDS011;13364;49.084;9.978;2023-02-28T01:17:26;4.90;;;3.63;;
25437;SDS011;13364;49.084;9.978;2023-02-28T01:19:54;6.00;;;4.00;;
25437;SDS011;13364;49.084;9.978;2023-02-28T01:22:24;7.35;;;4.00;;
25437;SDS011;13364;49.084;9.978;2023-02-28T01:24:51;5.55;;;4.15;;
25437;SDS011;13364;49.084;9.978;2023-02-28T01:27:18;5.85;;;3.58;;
25437;SDS011;13364;49.084;9.978;2023-02-28T01:29:45;8.73;;;4.18;;
25437;SDS011;13364;49.084;9.978;2023-02-28T01:32:12;7.30;;;4.10;;
25437;SDS011;13364;49.084;9.978;2023-02-28T01:34:39;6.28;;;4.47;;
25437;SDS011;13364;49.084;9.978;2023-02-28T01:37:06;7.85;;;4.40;;
25437;SDS011;13364;49.084;9.978;2023-02-28T01:39:33;6.25;;;3.67;;
25437;SDS011;13364;49.084;9.978;2023-02-28T01:42:02;6.20;;;4.38;;
25437;SDS011;13364;49.084;9.978;2023-02-28T01:47:28;7.15;;;4.82;;
25437;SDS011;13364;49.084;9.978;2023-02-28T01:50:06;6.78;;;4.22;;
25437;SDS011;13364;49.084;9.978;2023-02-28T01:52:42;4.85;;;3.72;;
25437;SDS011;13364;49.084;9.978;2023-02-28T01:55:10;5.43;;;4.18;;
25437;SDS011;13364;49.084;9.978;2023-02-28T01:57:43;7.05;;;4.63;;
25437;SDS011;13364;49.084;9.978;2023-02-28T02:00:17;7.90;;;4.35;;
25437;SDS011;13364;49.084;9.978;2023-02-28T02:02:50;7.03;;;4.57;;
25437;SDS011;13364;49.084;9.978;2023-02-28T02:05:20;6.85;;;4.38;;
25437;SDS011;13364;49.084;9.978;2023-02-28T02:07:50;7.82;;;4.63;;
25437;SDS011;13364;49.084;9.978;2023-02-28T02:10:36;7.30;;;4.68;;
25437;SDS011;13364;49.084;9.978;2023-02-28T02:13:18;8.90;;;4.70;;
25437;SDS011;13364;49.084;9.978;2023-02-28T02:18:43;7.27;;;4.83;;
25437;SDS011;13364;49.084;9.978;2023-02-28T02:21:29;8.70;;;4.95;;
25437;SDS011;13364;49.084;9.978;2023-02-28T02:32:44;8.55;;;4.68;;
25437;SDS011;13364;49.084;9.978;2023-02-28T02:43:20;9.00;;;5.30;;
25437;SDS011;13364;49.084;9.978;2023-02-28T02:45:58;10.95;;;4.28;;
25437;SDS011;13364;49.084;9.978;2023-02-28T02:48:30;6.88;;;4.65;;
25437;SDS011;13364;49.084;9.978;2023-02-28T02:51:01;6.93;;;4.40;;
25437;SDS011;13364;49.084;9.978;2023-02-28T02:54:15;6.03;;;4.25;;
25437;SDS011;13364;49.084;9.978;2023-02-28T02:57:01;5.65;;;3.90;;
25437;SDS011;13364;49.084;9.978;2023-02-28T02:59:32;7.53;;;4.88;;
25437;SDS011;13364;49.084;9.978;2023-02-28T03:02:02;9.50;;;5.13;;
25437;SDS011;13364;49.084;9.978;2023-02-28T03:04:33;7.65;;;4.30;;
25437;SDS011;13364;49.084;9.978;2023-02-28T03:07:06;6.88;;;4.28;;
25437;SDS011;13364;49.084;9.978;2023-02-28T03:09:33;8.68;;;4.45;;
25437;SDS011;13364;49.084;9.978;2023-02-28T03:12:02;7.10;;;4.30;;
25437;SDS011;13364;49.084;9.978;2023-02-28T03:17:53;7.47;;;5.10;;
25437;SDS011;13364;49.084;9.978;2023-02-28T03:20:36;8.50;;;6.15;;
25437;SDS011;13364;49.084;9.978;2023-02-28T03:23:25;9.52;;;5.75;;
25437;SDS011;13364;49.084;9.978;2023-02-28T03:26:06;8.73;;;5.68;;
25437;SDS011;13364;49.084;9.978;2023-02-28T03:28:50;9.02;;;4.35;;
25437;SDS011;13364;49.084;9.978;2023-02-28T03:31:36;8.35;;;6.90;;
25437;SDS011;13364;49.084;9.978;2023-02-28T03:34:10;8.70;;;5.32;;
25437;SDS011;13364;49.084;9.978;2023-02-28T03:36:57;9.47;;;6.23;;
25437;SDS011;13364;49.084;9.978;2023-02-28T03:42:10;9.57;;;5.75;;
25437;SDS011;13364;49.084;9.978;2023-02-28T03:44:45;10.18;;;6.32;;
25437;SDS011;13364;49.084;9.978;2023-02-28T03:50:10;12.60;;;5.90;;
25437;SDS011;13364;49.084;9.978;2023-02-28T03:52:49;10.20;;;6.10;;
25437;SDS011;13364;49.084;9.978;2023-02-28T03:55:21;10.35;;;6.47;;
25437;SDS011;13364;49.084;9.978;2023-02-28T04:00:46;8.98;;;5.55;;
25437;SDS011;13364;49.084;9.978;2023-02-28T04:06:06;8.77;;;4.30;;
25437;SDS011;13364;49.084;9.978;2023-02-28T04:08:39;7.03;;;5.00;;
25437;SDS011;13364;49.084;9.978;2023-02-28T04:11:08;6.10;;;4.45;;
25437;SDS011;13364;49.084;9.978;2023-02-28T04:13:45;6.18;;;4.82;;
25437;SDS011;13364;49.084;9.978;2023-02-28T04:16:13;12.20;;;5.63;;
25437;SDS011;13364;49.084;9.978;2023-02-28T04:18:59;9.70;;;5.13;;
25437;SDS011;13364;49.084;9.978;2023-02-28T04:21:32;7.57;;;5.05;;
25437;SDS011;13364;49.084;9.978;2023-02-28T04:24:06;10.32;;;6.13;;
25437;SDS011;13364;49.084;9.978;2023-02-28T04:26:35;6.25;;;5.38;;
25437;SDS011;13364;49.084;9.978;2023-02-28T04:29:04;10.02;;;5.53;;
25437;SDS011;13364;49.084;9.978;2023-02-28T04:31:33;6.32;;;3.88;;
25437;SDS011;13364;49.084;9.978;2023-02-28T04:34:01;11.43;;;6.05;;
25437;SDS011;13364;49.084;9.978;2023-02-28T04:36:28;10.43;;;5.78;;
25437;SDS011;13364;49.084;9.978;2023-02-28T04:38:56;8.10;;;3.45;;
25437;SDS011;13364;49.084;9.978;2023-02-28T04:41:23;8.07;;;5.07;;
25437;SDS011;13364;49.084;9.978;2023-02-28T04:43:51;8.45;;;6.10;;
25437;SDS011;13364;49.084;9.978;2023-02-28T04:46:19;11.20;;;6.18;;
25437;SDS011;13364;49.084;9.978;2023-02-28T04:48:47;9.20;;;6.28;;
25437;SDS011;13364;49.084;9.978;2023-02-28T04:51:15;9.73;;;5.93;;
25437;SDS011;13364;49.084;9.978;2023-02-28T04:53:43;10.70;;;5.60;;
25437;SDS011;13364;49.084;9.978;2023-02-28T04:56:15;7.35;;;5.35;;
25437;SDS011;13364;49.084;9.978;2023-02-28T04:58:43;9.25;;;5.40;;
25437;SDS011;13364;49.084;9.978;2023-02-28T05:03:49;7.68;;;5.43;;
25437;SDS011;13364;49.084;9.978;2023-02-28T05:06:17;7.65;;;4.65;;
25437;SDS011;13364;49.084;9.978;2023-02-28T05:08:44;10.32;;;5.75;;
25437;SDS011;13364;49.084;9.978;2023-02-28T05:11:17;7.70;;;5.30;;
25437;SDS011;13364;49.084;9.978;2023-02-28T05:13:50;10.77;;;6.43;;
25437;SDS011;13364;49.084;9.978;2023-02-28T05:16:18;11.13;;;6.05;;
25437;SDS011;13364;49.084;9.978;2023-02-28T05:18:45;10.52;;;6.28;;
25437;SDS011;13364;49.084;9.978;2023-02-28T05:23:52;10.38;;;5.97;;
25437;SDS011;13364;49.084;9.978;2023-02-28T05:26:20;11.10;;;6.95;;
25437;SDS011;13364;49.084;9.978;2023-02-28T05:28:47;10.68;;;6.40;;
25437;SDS011;13364;49.084;9.978;2023-02-28T05:31:15;9.65;;;5.90;;
25437;SDS011;13364;49.084;9.978;2023-02-28T05:33:42;12.43;;;6.32;;
25437;SDS011;13364;49.084;9.978;2023-02-28T05:36:09;12.25;;;6.47;;
25437;SDS011;13364;49.084;9.978;2023-02-28T05:38:36;8.95;;;5.80;;
25437;SDS011;13364;49.084;9.978;2023-02-28T05:41:05;12.68;;;6.40;;
25437;SDS011;13364;49.084;9.978;2023-02-28T05:43:33;13.38;;;5.90;;
25437;SDS011;13364;49.084;9.978;2023-02-28T05:46:07;12.10;;;5.55;;
25437;SDS011;13364;49.084;9.978;2023-02-28T05:48:36;13.73;;;7.00;;
25437;SDS011;13364;49.084;9.978;2023-02-28T05:51:05;12.55;;;6.57;;
25437;SDS011;13364;49.084;9.978;2023-02-28T05:53:33;12.63;;;6.63;;
25437;SDS011;13364;49.084;9.978;2023-02-28T05:56:01;11.52;;;6.00;;
25437;SDS011;13364;49.084;9.978;2023-02-28T05:58:28;12.98;;;6.53;;
25437;SDS011;13364;49.084;9.978;2023-02-28T06:04:04;10.57;;;6.45;;
25437;SDS011;13364;49.084;9.978;2023-02-28T06:06:32;12.27;;;7.30;;
25437;SDS011;13364;49.084;9.978;2023-02-28T06:09:03;11.45;;;8.10;;
25437;SDS011;13364;49.084;9.978;2023-02-28T06:11:32;10.07;;;6.38;;
25437;SDS011;13364;49.084;9.978;2023-02-28T06:13:59;11.52;;;6.80;;
25437;SDS011;13364;49.084;9.978;2023-02-28T06:16:28;13.13;;;7.20;;
25437;SDS011;13364;49.084;9.978;2023-02-28T06:18:57;7.82;;;5.70;;
25437;SDS011;13364;49.084;9.978;2023-02-28T06:21:26;10.65;;;6.75;;
25437;SDS011;13364;49.084;9.978;2023-02-28T06:23:57;13.32;;;7.28;;
25437;SDS011;13364;49.084;9.978;2023-02-28T06:26:25;17.60;;;7.65;;
25437;SDS011;13364;49.084;9.978;2023-02-28T06:28:52;15.80;;;7.65;;
25437;SDS011;13364;49.084;9.978;2023-02-28T06:31:19;12.13;;;7.65;;
25437;SDS011;13364;49.084;9.978;2023-02-28T06:33:47;13.52;;;7.38;;
25437;SDS011;13364;49.084;9.978;2023-02-28T06:36:16;12.02;;;6.00;;
25437;SDS011;13364;49.084;9.978;2023-02-28T06:38:43;10.73;;;6.85;;
25437;SDS011;13364;49.084;9.978;2023-02-28T06:41:11;11.18;;;7.22;;
25437;SDS011;13364;49.084;9.978;2023-02-28T06:43:39;13.68;;;7.72;;
25437;SDS011;13364;49.084;9.978;2023-02-28T06:46:08;17.58;;;10.25;;
25437;SDS011;13364;49.084;9.978;2023-02-28T06:48:37;16.58;;;8.32;;
25437;SDS011;13364;49.084;9.978;2023-02-28T06:51:08;15.98;;;9.07;;
25437;SDS011;13364;49.084;9.978;2023-02-28T06:53:37;13.20;;;7.90;;
25437;SDS011;13364;49.084;9.978;2023-02-28T06:56:05;13.95;;;8.05;;
25437;SDS011;13364;49.084;9.978;2023-02-28T06:58:34;18.63;;;8.60;;
25437;SDS011;13364;49.084;9.978;2023-02-28T07:01:02;16.90;;;10.00;;
25437;SDS011;13364;49.084;9.978;2023-02-28T07:03:29;12.88;;;7.53;;
25437;SDS011;13364;49.084;9.978;2023-02-28T07:05:59;14.45;;;8.07;;
25437;SDS011;13364;49.084;9.978;2023-02-28T07:08:27;15.48;;;9.32;;
25437;SDS011;13364;49.084;9.978;2023-02-28T07:10:54;15.32;;;9.15;;
25437;SDS011;13364;49.084;9.978;2023-02-28T07:13:22;16.65;;;9.60;;
25437;SDS011;13364;49.084;9.978;2023-02-28T07:16:00;15.63;;;9.60;;
25437;SDS011;13364;49.084;9.978;2023-02-28T07:18:30;16.58;;;8.40;;
25437;SDS011;13364;49.084;9.978;2023-02-28T07:20:57;15.80;;;9.18;;
25437;SDS011;13364;49.084;9.978;2023-02-28T07:23:24;18.25;;;11.98;;
25437;SDS011;13364;49.084;9.978;2023-02-28T07:25:52;15.85;;;8.98;;
25437;SDS011;13364;49.084;9.978;2023-02-28T07:28:22;14.82;;;9.02;;
25437;SDS011;13364;49.084;9.978;2023-02-28T07:30:49;17.25;;;10.30;;
25437;SDS011;13364;49.084;9.978;2023-02-28T07:33:17;15.95;;;9.63;;
25437;SDS011;13364;49.084;9.978;2023-02-28T07:35:44;15.73;;;8.75;;
25437;SDS011;13364;49.084;9.978;2023-02-28T07:38:11;15.73;;;9.45;;
25437;SDS011;13364;49.084;9.978;2023-02-28T07:40:40;16.55;;;9.95;;
25437;SDS011;13364;49.084;9.978;2023-02-28T07:43:07;13.50;;;8.10;;
25437;SDS011;13364;49.084;9.978;2023-02-28T07:45:34;16.02;;;8.30;;
25437;SDS011;13364;49.084;9.978;2023-02-28T07:48:01;15.75;;;8.77;;
25437;SDS011;13364;49.084;9.978;2023-02-28T07:50:29;13.10;;;8.55;;
25437;SDS011;13364;49.084;9.978;2023-02-28T07:52:58;15.43;;;9.17;;
25437;SDS011;13364;49.084;9.978;2023-02-28T07:55:25;15.88;;;9.32;;
25437;SDS011;13364;49.084;9.978;2023-02-28T07:57:52;12.93;;;8.95;;
25437;SDS011;13364;49.084;9.978;2023-02-28T08:00:20;15.77;;;8.18;;
25437;SDS011;13364;49.084;9.978;2023-02-28T08:02:48;13.93;;;8.15;;
25437;SDS011;13364;49.084;9.978;2023-02-28T08:05:15;14.77;;;9.27;;
25437;SDS011;13364;49.084;9.978;2023-02-28T08:07:45;15.60;;;9.35;;
25437;SDS011;13364;49.084;9.978;2023-02-28T08:10:13;17.17;;;9.05;;
25437;SDS011;13364;49.084;9.978;2023-02-28T08:12:41;17.38;;;9.90;;
25437;SDS011;13364;49.084;9.978;2023-02-28T08:15:08;13.93;;;8.50;;
25437;SDS011;13364;49.084;9.978;2023-02-28T08:17:35;17.02;;;9.40;;
25437;SDS011;13364;49.084;9.978;2023-02-28T08:20:02;14.50;;;9.10;;
25437;SDS011;13364;49.084;9.978;2023-02-28T08:22:31;13.82;;;8.48;;
25437;SDS011;13364;49.084;9.978;2023-02-28T08:24:58;15.82;;;9.43;;
25437;SDS011;13364;49.084;9.978;2023-02-28T08:27:25;12.73;;;8.52;;
25437;SDS011;13364;49.084;9.978;2023-02-28T08:29:52;17.70;;;11.65;;
25437;SDS011;13364;49.084;9.978;2023-02-28T08:32:19;11.38;;;6.80;;
25437;SDS011;13364;49.084;9.978;2023-02-28T08:34:55;15.68;;;9.63;;
25437;SDS011;13364;49.084;9.978;2023-02-28T08:37:22;15.02;;;8.90;;
25437;SDS011;13364;49.084;9.978;2023-02-28T08:39:49;13.18;;;7.63;;
25437;SDS011;13364;49.084;9.978;2023-02-28T08:42:20;14.10;;;8.50;;
25437;SDS011;13364;49.084;9.978;2023-02-28T08:44:48;13.75;;;9.32;;
25437;SDS011;13364;49.084;9.978;2023-02-28T08:47:16;16.30;;;9.20;;
25437;SDS011;13364;49.084;9.978;2023-02-28T08:49:43;12.27;;;8.70;;
25437;SDS011;13364;49.084;9.978;2023-02-28T08:52:10;13.88;;;7.72;;
25437;SDS011;13364;49.084;9.978;2023-02-28T08:54:37;15.40;;;8.50;;
25437;SDS011;13364;49.084;9.978;2023-02-28T08:57:04;14.15;;;9.48;;
25437;SDS011;13364;49.084;9.978;2023-02-28T08:59:31;16.55;;;9.35;;
25437;SDS011;13364;49.084;9.978;2023-02-28T09:01:59;13.95;;;9.43;;
25437;SDS011;13364;49.084;9.978;2023-02-28T09:04:26;14.70;;;8.43;;
25437;SDS011;13364;49.084;9.978;2023-02-28T09:06:53;14.10;;;8.35;;
25437;SDS011;13364;49.084;9.978;2023-02-28T09:09:20;13.35;;;8.82;;
25437;SDS011;13364;49.084;9.978;2023-02-28T09:11:47;14.60;;;9.05;;
25437;SDS011;13364;49.084;9.978;2023-02-28T09:14:14;17.25;;;9.02;;
25437;SDS011;13364;49.084;9.978;2023-02-28T09:19:11;14.48;;;8.30;;
25437;SDS011;13364;49.084;9.978;2023-02-28T09:21:38;11.90;;;8.05;;
25437;SDS011;13364;49.084;9.978;2023-02-28T09:24:07;14.25;;;8.60;;
25437;SDS011;13364;49.084;9.978;2023-02-28T09:26:34;12.85;;;8.93;;
25437;SDS011;13364;49.084;9.978;2023-02-28T09:29:12;16.17;;;9.63;;
25437;SDS011;13364;49.084;9.978;2023-02-28T09:31:40;26.55;;;14.10;;
25437;SDS011;13364;49.084;9.978;2023-02-28T09:34:07;16.63;;;11.02;;
25437;SDS011;13364;49.084;9.978;2023-02-28T09:36:35;15.10;;;9.63;;
25437;SDS011;13364;49.084;9.978;2023-02-28T09:39:11;14.55;;;8.95;;
25437;SDS011;13364;49.084;9.978;2023-02-28T09:41:43;10.32;;;6.45;;
25437;SDS011;13364;49.084;9.978;2023-02-28T09:44:20;16.15;;;9.15;;
25437;SDS011;13364;49.084;9.978;2023-02-28T09:47:14;14.35;;;7.65;;
25437;SDS011;13364;49.084;9.978;2023-02-28T09:49:58;11.73;;;8.30;;
25437;SDS011;13364;49.084;9.978;2023-02-28T09:52:33;16.20;;;8.73;;
25437;SDS011;13364;49.084;9.978;2023-02-28T09:55:12;9.95;;;7.20;;
25437;SDS011;13364;49.084;9.978;2023-02-28T09:57:45;11.25;;;7.30;;
25437;SDS011;13364;49.084;9.978;2023-02-28T10:00:19;14.07;;;8.95;;
25437;SDS011;13364;49.084;9.978;2023-02-28T10:08:16;13.52;;;8.85;;
25437;SDS011;13364;49.084;9.978;2023-02-28T10:10:51;14.60;;;9.27;;
25437;SDS011;13364;49.084;9.978;2023-02-28T10:16:02;11.95;;;8.02;;
25437;SDS011;13364;49.084;9.978;2023-02-28T10:21:53;15.15;;;9.13;;
25437;SDS011;13364;49.084;9.978;2023-02-28T10:24:35;13.77;;;9.30;;
25437;SDS011;13364;49.084;9.978;2023-02-28T10:27:13;13.18;;;8.80;;
25437;SDS011;13364;49.084;9.978;2023-02-28T10:29:43;12.38;;;8.02;;
25437;SDS011;13364;49.084;9.978;2023-02-28T10:34:41;13.65;;;8.30;;
25437;SDS011;13364;49.084;9.978;2023-02-28T10:37:09;11.93;;;8.45;;
25437;SDS011;13364;49.084;9.978;2023-02-28T10:39:43;11.43;;;8.55;;
25437;SDS011;13364;49.084;9.978;2023-02-28T10:42:26;14.57;;;8.35;;
25437;SDS011;13364;49.084;9.978;2023-02-28T10:48:00;13.43;;;8.23;;
25437;SDS011;13364;49.084;9.978;2023-02-28T11:01:49;19.17;;;11.10;;
25437;SDS011;13364;49.084;9.978;2023-02-28T11:04:20;12.55;;;8.68;;
25437;SDS011;13364;49.084;9.978;2023-02-28T11:09:45;12.25;;;8.55;;
25437;SDS011;13364;49.084;9.978;2023-02-28T11:20:50;12.88;;;9.45;;
25437;SDS011;13364;49.084;9.978;2023-02-28T11:27:48;12.30;;;8.52;;
25437;SDS011;13364;49.084;9.978;2023-02-28T11:30:28;14.02;;;9.07;;
25437;SDS011;13364;49.084;9.978;2023-02-28T11:35:45;11.90;;;8.30;;
25437;SDS011;13364;49.084;9.978;2023-02-28T11:38:11;11.98;;;8.23;;
25437;SDS011;13364;49.084;9.978;2023-02-28T11:47:33;15.25;;;9.73;;
25437;SDS011;13364;49.084;9.978;2023-02-28T11:56:31;15.23;;;9.38;;
25437;SDS011;13364;49.084;9.978;2023-02-28T11:59:07;11.60;;;8.53;;
25437;SDS011;13364;49.084;9.978;2023-02-28T12:17:42;11.65;;;8.77;;
25437;SDS011;13364;49.084;9.978;2023-02-28T12:27:57;12.02;;;9.07;;
25437;SDS011;13364;49.084;9.978;2023-02-28T12:30:27;13.45;;;8.77;;
25437;SDS011;13364;49.084;9.978;2023-02-28T12:33:08;13.38;;;9.05;;
25437;SDS011;13364;49.084;9.978;2023-02-28T12:35:41;14.23;;;9.00;;
25437;SDS011;13364;49.084;9.978;2023-02-28T12:41:45;12.93;;;9.15;;
25437;SDS011;13364;49.084;9.978;2023-02-28T12:44:19;10.85;;;8.40;;
25437;SDS011;13364;49.084;9.978;2023-02-28T12:46:55;15.85;;;9.35;;
25437;SDS011;13364;49.084;9.978;2023-02-28T12:51:53;12.05;;;8.57;;
25437;SDS011;13364;49.084;9.978;2023-02-28T12:56:56;16.88;;;10.05;;
25437;SDS011;13364;49.084;9.978;2023-02-28T12:59:52;12.13;;;8.18;;
25437;SDS011;13364;49.084;9.978;2023-02-28T13:10:48;16.75;;;9.85;;
25437;SDS011;13364;49.084;9.978;2023-02-28T13:13:22;14.65;;;9.05;;
25437;SDS011;13364;49.084;9.978;2023-02-28T13:16:03;13.60;;;9.07;;
25437;SDS011;13364;49.084;9.978;2023-02-28T13:18:38;19.60;;;10.63;;
25437;SDS011;13364;49.084;9.978;2023-02-28T13:21:07;23.75;;;12.70;;
25437;SDS011;13364;49.084;9.978;2023-02-28T13:23:37;16.35;;;10.00;;
25437;SDS011;13364;49.084;9.978;2023-02-28T13:26:13;11.27;;;8.43;;
25437;SDS011;13364;49.084;9.978;2023-02-28T13:31:24;23.65;;;15.20;;
25437;SDS011;13364;49.084;9.978;2023-02-28T13:34:05;17.80;;;13.10;;
25437;SDS011;13364;49.084;9.978;2023-02-28T13:40:34;12.15;;;9.25;;
25437;SDS011;13364;49.084;9.978;2023-02-28T13:45:33;13.70;;;9.05;;
25437;SDS011;13364;49.084;9.978;2023-02-28T13:48:16;13.05;;;8.18;;
25437;SDS011;13364;49.084;9.978;2023-02-28T14:04:38;12.20;;;8.18;;
25437;SDS011;13364;49.084;9.978;2023-02-28T14:07:29;13.95;;;9.23;;
25437;SDS011;13364;49.084;9.978;2023-02-28T14:33:27;15.82;;;9.52;;
25437;SDS011;13364;49.084;9.978;2023-02-28T14:36:26;24.45;;;14.30;;
25437;SDS011;13364;49.084;9.978;2023-02-28T14:39:06;22.25;;;12.43;;
25437;SDS011;13364;49.084;9.978;2023-02-28T14:48:08;13.48;;;8.95;;
25437;SDS011;13364;49.084;9.978;2023-02-28T14:50:36;11.85;;;9.02;;
25437;SDS011;13364;49.084;9.978;2023-02-28T14:53:22;14.82;;;10.18;;
25437;SDS011;13364;49.084;9.978;2023-02-28T14:55:52;15.18;;;9.73;;
25437;SDS011;13364;49.084;9.978;2023-02-28T14:58:23;14.52;;;9.60;;
25437;SDS011;13364;49.084;9.978;2023-02-28T15:00:58;13.70;;;10.15;;
25437;SDS011;13364;49.084;9.978;2023-02-28T15:03:34;14.15;;;9.45;;
25437;SDS011;13364;49.084;9.978;2023-02-28T15:09:22;11.80;;;9.30;;
25437;SDS011;13364;49.084;9.978;2023-02-28T15:11:49;13.80;;;8.90;;
25437;SDS011;13364;49.084;9.978;2023-02-28T15:14:18;14.95;;;9.48;;
25437;SDS011;13364;49.084;9.978;2023-02-28T15:16:49;15.02;;;9.95;;
25437;SDS011;13364;49.084;9.978;2023-02-28T15:19:32;12.75;;;9.18;;
25437;SDS011;13364;49.084;9.978;2023-02-28T15:22:03;12.25;;;9.05;;
25437;SDS011;13364;49.084;9.978;2023-02-28T15:24:36;14.98;;;9.18;;
25437;SDS011;13364;49.084;9.978;2023-02-28T15:27:13;15.05;;;9.13;;
25437;SDS011;13364;49.084;9.978;2023-02-28T15:29:48;15.80;;;9.60;;
25437;SDS011;13364;49.084;9.978;2023-02-28T15:32:24;13.70;;;9.18;;
25437;SDS011;13364;49.084;9.978;2023-02-28T15:34:55;14.98;;;10.15;;
25437;SDS011;13364;49.084;9.978;2023-02-28T15:37:39;13.45;;;9.23;;
25437;SDS011;13364;49.084;9.978;2023-02-28T15:40:13;14.80;;;9.32;;
25437;SDS011;13364;49.084;9.978;2023-02-28T15:42:57;12.65;;;8.88;;
25437;SDS011;13364;49.084;9.978;2023-02-28T15:45:27;13.63;;;9.85;;
25437;SDS011;13364;49.084;9.978;2023-02-28T15:47:58;16.60;;;9.30;;
25437;SDS011;13364;49.084;9.978;2023-02-28T15:50:38;17.20;;;9.73;;
25437;SDS011;13364;49.084;9.978;2023-02-28T15:53:08;13.77;;;9.25;;
25437;SDS011;13364;49.084;9.978;2023-02-28T15:55:43;14.60;;;9.50;;
25437;SDS011;13364;49.084;9.978;2023-02-28T15:58:11;14.98;;;9.20;;
25437;SDS011;13364;49.084;9.978;2023-02-28T16:00:39;15.77;;;9.85;;
25437;SDS011;13364;49.084;9.978;2023-02-28T16:03:32;16.58;;;9.10;;
25437;SDS011;13364;49.084;9.978;2023-02-28T16:06:21;16.02;;;9.30;;
25437;SDS011;13364;49.084;9.978;2023-02-28T16:08:57;13.93;;;10.05;;
25437;SDS011;13364;49.084;9.978;2023-02-28T16:11:24;14.75;;;9.60;;
25437;SDS011;13364;49.084;9.978;2023-02-28T16:13:51;15.82;;;10.38;;
25437;SDS011;13364;49.084;9.978;2023-02-28T16:16:23;14.75;;;11.05;;
25437;SDS011;13364;49.084;9.978;2023-02-28T16:18:52;16.52;;;10.90;;
25437;SDS011;13364;49.084;9.978;2023-02-28T16:21:19;16.30;;;10.73;;
25437;SDS011;13364;49.084;9.978;2023-02-28T16:23:47;20.27;;;11.63;;
25437;SDS011;13364;49.084;9.978;2023-02-28T16:26:17;22.95;;;12.82;;
25437;SDS011;13364;49.084;9.978;2023-02-28T16:28:47;17.83;;;12.20;;
25437;SDS011;13364;49.084;9.978;2023-02-28T16:31:15;32.53;;;18.10;;
25437;SDS011;13364;49.084;9.978;2023-02-28T16:33:44;26.92;;;16.20;;
25437;SDS011;13364;49.084;9.978;2023-02-28T16:36:18;20.43;;;12.70;;
25437;SDS011;13364;49.084;9.978;2023-02-28T16:38:48;15.55;;;11.45;;
25437;SDS011;13364;49.084;9.978;2023-02-28T16:44:38;17.95;;;10.88;;
25437;SDS011;13364;49.084;9.978;2023-02-28T16:47:08;17.80;;;10.80;;
25437;SDS011;13364;49.084;9.978;2023-02-28T16:49:37;17.60;;;11.90;;
25437;SDS011;13364;49.084;9.978;2023-02-28T16:52:04;16.13;;;10.60;;
25437;SDS011;13364;49.084;9.978;2023-02-28T16:54:32;16.20;;;10.27;;
25437;SDS011;13364;49.084;9.978;2023-02-28T16:56:59;20.23;;;12.98;;
25437;SDS011;13364;49.084;9.978;2023-02-28T16:59:27;19.23;;;11.93;;
25437;SDS011;13364;49.084;9.978;2023-02-28T17:01:55;17.95;;;11.15;;
25437;SDS011;13364;49.084;9.978;2023-02-28T17:04:26;21.25;;;12.05;;
25437;SDS011;13364;49.084;9.978;2023-02-28T17:09:56;16.33;;;9.98;;
25437;SDS011;13364;49.084;9.978;2023-02-28T17:12:23;20.90;;;11.40;;
25437;SDS011;13364;49.084;9.978;2023-02-28T17:14:51;17.88;;;11.50;;
25437;SDS011;13364;49.084;9.978;2023-02-28T17:17:19;15.90;;;10.10;;
25437;SDS011;13364;49.084;9.978;2023-02-28T17:19:48;16.38;;;10.50;;
25437;SDS011;13364;49.084;9.978;2023-02-28T17:22:15;17.33;;;9.82;;
25437;SDS011;13364;49.084;9.978;2023-02-28T17:24:42;16.25;;;11.07;;
25437;SDS011;13364;49.084;9.978;2023-02-28T17:27:11;23.85;;;13.40;;
25437;SDS011;13364;49.084;9.978;2023-02-28T17:29:39;21.27;;;12.95;;
25437;SDS011;13364;49.084;9.978;2023-02-28T17:32:06;18.90;;;12.02;;
25437;SDS011;13364;49.084;9.978;2023-02-28T17:34:43;16.83;;;11.00;;
25437;SDS011;13364;49.084;9.978;2023-02-28T17:37:12;22.45;;;13.10;;
25437;SDS011;13364;49.084;9.978;2023-02-28T17:39:39;22.08;;;12.85;;
25437;SDS011;13364;49.084;9.978;2023-02-28T17:42:25;25.63;;;14.52;;
25437;SDS011;13364;49.084;9.978;2023-02-28T17:44:52;25.25;;;15.05;;
25437;SDS011;13364;49.084;9.978;2023-02-28T17:47:19;33.35;;;18.45;;
25437;SDS011;13364;49.084;9.978;2023-02-28T17:49:46;63.60;;;28.90;;
25437;SDS011;13364;49.084;9.978;2023-02-28T17:52:13;63.00;;;27.25;;
25437;SDS011;13364;49.084;9.978;2023-02-28T17:54:40;37.47;;;18.52;;
25437;SDS011;13364;49.084;9.978;2023-02-28T17:57:10;34.88;;;17.02;;
25437;SDS011;13364;49.084;9.978;2023-02-28T17:59:40;26.48;;;15.25;;
25437;SDS011;13364;49.084;9.978;2023-02-28T18:02:09;27.88;;;15.77;;
25437;SDS011;13364;49.084;9.978;2023-02-28T18:04:39;25.77;;;15.50;;
25437;SDS011;13364;49.084;9.978;2023-02-28T18:07:08;31.70;;;17.85;;
25437;SDS011;13364;49.084;9.978;2023-02-28T18:09:36;34.42;;;18.38;;
25437;SDS011;13364;49.084;9.978;2023-02-28T18:12:04;35.22;;;17.73;;
25437;SDS011;13364;49.084;9.978;2023-02-28T18:14:31;31.40;;;18.08;;
25437;SDS011;13364;49.084;9.978;2023-02-28T18:16:58;27.10;;;16.55;;
25437;SDS011;13364;49.084;9.978;2023-02-28T18:19:25;34.92;;;17.88;;
25437;SDS011;13364;49.084;9.978;2023-02-28T18:21:52;24.10;;;14.60;;
25437;SDS011;13364;49.084;9.978;2023-02-28T18:24:20;26.60;;;14.50;;
25437;SDS011;13364;49.084;9.978;2023-02-28T18:26:50;43.03;;;18.80;;
25437;SDS011;13364;49.084;9.978;2023-02-28T18:29:19;53.20;;;20.08;;
25437;SDS011;13364;49.084;9.978;2023-02-28T18:31:51;30.98;;;15.50;;
25437;SDS011;13364;49.084;9.978;2023-02-28T18:34:20;33.42;;;16.67;;